createdAt,value
2018-12-01T00:00:36.094Z,17.60
2018-12-01T00:03:04.333Z,16.37
2018-12-01T00:05:32.611Z,15.40
2018-12-01T00:08:00.847Z,15.63
2018-12-01T00:10:29.199Z,17.27
2018-12-01T00:12:57.459Z,15.83
2018-12-01T00:15:27.886Z,15.20
2018-12-01T00:17:56.639Z,15.37
2018-12-01T00:20:26.655Z,16.90
2018-12-01T00:22:54.999Z,15.23
2018-12-01T00:25:23.366Z,15.47
2018-12-01T00:27:51.663Z,17.60
2018-12-01T00:30:20.597Z,16.67
2018-12-01T00:32:49.825Z,17.07
2018-12-01T00:35:18.067Z,16.00
2018-12-01T00:37:46.316Z,16.50
2018-12-01T00:40:15.845Z,16.60
2018-12-01T00:42:44.244Z,15.17
2018-12-01T00:45:13.530Z,14.60
2018-12-01T00:47:42.094Z,15.20
2018-12-01T00:50:14.376Z,15.00
2018-12-01T00:52:42.677Z,15.57
2018-12-01T00:55:12.141Z,14.27
2018-12-01T00:57:40.386Z,14.77
2018-12-01T01:00:19.228Z,15.77
2018-12-01T01:02:55.283Z,15.77
2018-12-01T01:05:24.666Z,15.53
2018-12-01T01:07:53.371Z,15.30
2018-12-01T01:10:23.721Z,14.80
2018-12-01T01:12:52.005Z,14.67
2018-12-01T01:15:20.257Z,14.97
2018-12-01T01:17:48.556Z,15.40
2018-12-01T01:20:17.923Z,14.77
2018-12-01T01:22:46.640Z,14.47
2018-12-01T01:25:15.528Z,15.27
2018-12-01T01:27:43.942Z,14.90
2018-12-01T01:30:19.190Z,15.17
2018-12-01T01:32:47.691Z,15.40
2018-12-01T01:35:15.967Z,17.83
2018-12-01T01:37:44.270Z,23.00
2018-12-01T01:40:15.426Z,18.97
2018-12-01T01:42:43.843Z,16.70
2018-12-01T01:45:17.092Z,15.57
2018-12-01T01:47:45.438Z,16.30
2018-12-01T01:50:15.713Z,16.50
2018-12-01T01:52:43.976Z,16.80
2018-12-01T01:55:12.616Z,17.33
2018-12-01T01:57:41.203Z,16.80
2018-12-01T02:00:13.254Z,18.00
2018-12-01T02:02:43.562Z,19.93
2018-12-01T02:05:11.787Z,17.67
2018-12-01T02:07:40.644Z,18.00
2018-12-01T02:10:09.801Z,16.27
2018-12-01T02:12:38.098Z,16.60
2018-12-01T02:17:58.954Z,15.90
2018-12-01T02:20:27.351Z,16.00
2018-12-01T02:22:55.634Z,16.50
2018-12-01T02:25:24.064Z,16.10
2018-12-01T02:27:52.292Z,16.97
2018-12-01T02:30:21.139Z,17.53
2018-12-01T02:32:49.751Z,18.13
2018-12-01T02:35:24.060Z,17.73
2018-12-01T02:37:52.321Z,17.50
2018-12-01T02:40:20.637Z,19.87
2018-12-01T02:42:48.863Z,20.33
2018-12-01T02:45:28.204Z,18.47
2018-12-01T02:47:56.522Z,18.23
2018-12-01T02:50:25.431Z,18.13
2018-12-01T02:52:55.578Z,19.87
2018-12-01T02:55:23.832Z,18.03
2018-12-01T02:57:52.066Z,19.07
2018-12-01T03:00:20.347Z,19.17
2018-12-01T03:02:48.593Z,18.40
2018-12-01T03:05:16.964Z,18.63
2018-12-01T03:07:45.205Z,18.93
2018-12-01T03:10:16.375Z,19.23
2018-12-01T03:12:44.713Z,18.30
2018-12-01T03:15:13.963Z,17.83
2018-12-01T03:17:42.186Z,18.73
2018-12-01T03:20:12.719Z,19.27
2018-12-01T03:22:41.060Z,18.97
2018-12-01T03:25:11.296Z,18.73
2018-12-01T03:27:39.591Z,19.03
2018-12-01T03:30:10.603Z,17.37
2018-12-01T03:32:39.166Z,18.67
2018-12-01T03:35:09.382Z,17.20
2018-12-01T03:37:37.599Z,19.10
2018-12-01T03:40:06.572Z,18.13
2018-12-01T03:42:34.976Z,18.30
2018-12-01T03:45:03.379Z,19.43
2018-12-01T03:47:31.671Z,20.50
2018-12-01T03:49:59.894Z,20.17
2018-12-01T03:52:28.147Z,20.07
2018-12-01T03:54:56.460Z,20.40
2018-12-01T03:57:24.696Z,21.47
2018-12-01T03:59:52.910Z,20.27
2018-12-01T04:02:21.292Z,20.47
2018-12-01T04:04:49.570Z,20.93
2018-12-01T04:07:17.794Z,21.27
2018-12-01T04:09:46.037Z,20.17
2018-12-01T04:12:14.288Z,20.87
2018-12-01T04:14:42.569Z,22.13
2018-12-01T04:17:10.780Z,21.70
2018-12-01T04:19:39.000Z,20.83
2018-12-01T04:22:07.315Z,21.77
2018-12-01T04:24:35.624Z,21.10
2018-12-01T04:27:03.869Z,22.93
2018-12-01T04:29:32.132Z,22.13
2018-12-01T04:32:00.397Z,24.57
2018-12-01T04:34:28.672Z,24.53
2018-12-01T04:36:56.928Z,24.83
2018-12-01T04:39:25.153Z,25.33
2018-12-01T04:41:53.480Z,26.87
2018-12-01T04:44:21.690Z,29.40
2018-12-01T04:46:49.915Z,26.80
2018-12-01T04:49:18.284Z,27.83
2018-12-01T04:51:46.543Z,26.17
2018-12-01T04:54:14.837Z,27.77
2018-12-01T04:56:43.055Z,28.23
2018-12-01T04:59:11.275Z,28.90
2018-12-01T05:01:39.497Z,30.80
2018-12-01T05:04:07.731Z,28.77
2018-12-01T05:06:35.961Z,29.27
2018-12-01T05:09:06.253Z,31.43
2018-12-01T05:11:34.670Z,28.97
2018-12-01T05:14:03.047Z,30.63
2018-12-01T05:16:31.351Z,28.33
2018-12-01T05:18:59.598Z,29.03
2018-12-01T05:21:27.869Z,29.97
2018-12-01T05:23:56.073Z,30.77
2018-12-01T05:26:24.303Z,30.17
2018-12-01T05:28:52.593Z,29.67
2018-12-01T05:31:20.842Z,29.17
2018-12-01T05:33:49.161Z,28.60
2018-12-01T05:36:17.473Z,29.57
2018-12-01T05:38:45.718Z,28.30
2018-12-01T05:41:13.930Z,30.23
2018-12-01T05:43:42.315Z,29.07
2018-12-01T05:46:10.557Z,27.70
2018-12-01T05:48:38.806Z,28.17
2018-12-01T05:51:07.053Z,27.93
2018-12-01T05:53:35.301Z,27.87
2018-12-01T05:56:03.552Z,28.93
2018-12-01T05:58:31.776Z,27.27
2018-12-01T06:00:59.988Z,28.57
2018-12-01T06:03:28.242Z,27.23
2018-12-01T06:05:56.471Z,26.57
2018-12-01T06:08:24.681Z,27.70
2018-12-01T06:10:52.893Z,27.27
2018-12-01T06:13:21.151Z,26.83
2018-12-01T06:15:49.369Z,27.80
2018-12-01T06:18:17.623Z,29.73
2018-12-01T06:20:45.867Z,28.10
2018-12-01T06:23:14.094Z,29.63
2018-12-01T06:25:42.375Z,29.97
2018-12-01T06:28:10.620Z,30.70
2018-12-01T06:30:38.826Z,30.33
2018-12-01T06:33:07.065Z,29.13
2018-12-01T06:35:35.306Z,30.40
2018-12-01T06:38:03.513Z,29.23
2018-12-01T06:40:31.741Z,29.37
2018-12-01T06:42:59.964Z,28.63
2018-12-01T06:45:28.204Z,28.60
2018-12-01T06:47:56.434Z,28.93
2018-12-01T06:50:24.673Z,28.47
2018-12-01T06:52:53.623Z,29.47
2018-12-01T06:55:22.968Z,28.97
2018-12-01T06:57:51.238Z,28.87
2018-12-01T07:00:20.903Z,29.90
2018-12-01T07:02:49.567Z,29.37
2018-12-01T07:05:18.300Z,30.10
2018-12-01T07:07:46.597Z,30.90
2018-12-01T07:10:16.971Z,28.63
2018-12-01T07:12:47.528Z,29.90
2018-12-01T07:15:21.415Z,31.80
2018-12-01T07:17:49.691Z,30.87
2018-12-01T07:20:18.039Z,30.23
2018-12-01T07:22:46.273Z,28.40
2018-12-01T07:25:14.523Z,29.53
2018-12-01T07:27:42.791Z,29.17
2018-12-01T07:30:14.249Z,28.97
2018-12-01T07:32:43.131Z,28.50
2018-12-01T07:35:11.345Z,26.23
2018-12-01T07:37:39.831Z,26.67
2018-12-01T07:40:10.735Z,26.07
2018-12-01T07:42:38.965Z,26.80
2018-12-01T07:45:09.865Z,26.23
2018-12-01T07:47:38.192Z,26.80
2018-12-01T07:50:09.378Z,24.90
2018-12-01T07:52:37.571Z,24.90
2018-12-01T07:55:06.067Z,25.10
2018-12-01T07:57:34.291Z,25.90
2018-12-01T08:00:02.726Z,24.07
2018-12-01T08:02:30.971Z,23.83
2018-12-01T08:04:59.202Z,23.90
2018-12-01T08:07:27.491Z,23.37
2018-12-01T08:09:55.752Z,21.47
2018-12-01T08:12:24.019Z,21.70
2018-12-01T08:14:52.301Z,22.77
2018-12-01T08:17:20.542Z,21.23
2018-12-01T08:19:48.779Z,21.90
2018-12-01T08:22:17.060Z,22.20
2018-12-01T08:24:45.283Z,21.13
2018-12-01T08:27:13.544Z,21.30
2018-12-01T08:29:41.796Z,20.17
2018-12-01T08:32:10.033Z,19.17
2018-12-01T08:34:38.272Z,19.47
2018-12-01T08:37:06.936Z,20.10
2018-12-01T08:39:35.200Z,20.30
2018-12-01T08:42:03.429Z,19.20
2018-12-01T08:44:31.663Z,19.33
2018-12-01T08:49:52.873Z,18.37
2018-12-01T08:52:21.111Z,19.50
2018-12-01T08:54:49.364Z,19.90
2018-12-01T08:57:17.577Z,18.57
2018-12-01T08:59:45.870Z,18.97
2018-12-01T09:02:14.125Z,18.47
2018-12-01T09:04:42.354Z,18.63
2018-12-01T09:07:10.634Z,19.47
2018-12-01T09:09:38.899Z,19.03
2018-12-01T09:12:07.158Z,18.90
2018-12-01T09:14:35.403Z,19.57
2018-12-01T09:17:03.684Z,18.73
2018-12-01T09:19:31.943Z,18.83
2018-12-01T09:22:00.233Z,19.57
2018-12-01T09:24:28.490Z,20.27
2018-12-01T09:26:56.700Z,21.77
2018-12-01T09:29:24.917Z,22.03
2018-12-01T09:31:53.360Z,21.63
2018-12-01T09:34:21.582Z,22.03
2018-12-01T09:36:49.833Z,20.77
2018-12-01T09:39:18.095Z,19.63
2018-12-01T09:41:46.342Z,20.23
2018-12-01T09:44:14.614Z,19.53
2018-12-01T09:46:42.873Z,19.10
2018-12-01T09:49:11.151Z,18.90
2018-12-01T09:51:39.359Z,19.13
2018-12-01T09:54:07.595Z,18.87
2018-12-01T09:56:35.833Z,18.53
2018-12-01T09:59:04.065Z,18.70
2018-12-01T10:01:32.273Z,18.67
2018-12-01T10:04:00.521Z,19.07
2018-12-01T10:06:28.732Z,18.30
2018-12-01T10:08:57.186Z,17.70
2018-12-01T10:11:25.442Z,18.17
2018-12-01T10:13:53.749Z,18.10
2018-12-01T10:16:21.985Z,18.33
2018-12-01T10:18:50.237Z,18.47
2018-12-01T10:21:18.587Z,17.07
2018-12-01T10:23:46.800Z,17.50
2018-12-01T10:26:15.045Z,18.03
2018-12-01T10:28:43.328Z,19.30
2018-12-01T10:31:11.597Z,17.23
2018-12-01T10:33:39.887Z,18.13
2018-12-01T10:36:08.144Z,17.93
2018-12-01T10:38:36.375Z,18.97
2018-12-01T10:41:04.649Z,18.97
2018-12-01T10:43:32.852Z,18.53
2018-12-01T10:48:53.583Z,18.43
2018-12-01T10:51:21.865Z,18.00
2018-12-01T10:54:10.030Z,17.90
2018-12-01T10:56:38.297Z,16.73
2018-12-01T10:59:26.190Z,17.00
2018-12-01T11:01:59.919Z,16.43
2018-12-01T11:04:33.430Z,15.77
2018-12-01T11:07:01.705Z,18.33
2018-12-01T11:09:29.926Z,17.57
2018-12-01T11:11:58.219Z,17.67
2018-12-01T11:14:26.504Z,16.87
2018-12-01T11:16:54.804Z,17.43
2018-12-01T11:19:23.063Z,18.07
2018-12-01T11:21:51.506Z,16.63
2018-12-01T11:24:19.800Z,15.87
2018-12-01T11:27:50.851Z,16.80
2018-12-01T11:30:20.098Z,15.60
2018-12-01T11:32:48.586Z,16.77
2018-12-01T11:35:16.854Z,17.47
2018-12-01T11:37:45.491Z,16.03
2018-12-01T11:40:15.859Z,16.07
2018-12-01T11:42:44.308Z,17.47
2018-12-01T11:45:14.392Z,17.37
2018-12-01T11:47:42.604Z,17.07
2018-12-01T11:50:14.791Z,16.87
2018-12-01T11:52:43.056Z,17.73
2018-12-01T11:55:14.108Z,17.77
2018-12-01T11:57:42.425Z,17.13
2018-12-01T12:00:13.286Z,16.57
2018-12-01T12:02:41.581Z,15.70
2018-12-01T12:05:10.923Z,15.27
2018-12-01T12:07:50.738Z,16.37
2018-12-01T12:10:22.624Z,15.07
2018-12-01T12:12:50.909Z,15.07
2018-12-01T12:15:19.684Z,16.10
2018-12-01T12:17:52.776Z,14.87
2018-12-01T12:20:21.287Z,15.57
2018-12-01T12:22:50.001Z,15.93
2018-12-01T12:28:11.400Z,16.17
2018-12-01T12:30:39.968Z,15.20
2018-12-01T12:33:08.232Z,13.90
2018-12-01T12:35:39.700Z,15.27
2018-12-01T12:38:08.003Z,15.20
2018-12-01T12:40:36.314Z,13.80
2018-12-01T12:43:04.571Z,15.07
2018-12-01T12:45:32.898Z,14.10
2018-12-01T12:48:01.177Z,15.63
2018-12-01T12:50:29.396Z,14.47
2018-12-01T12:52:57.743Z,14.93
2018-12-01T12:58:19.308Z,15.13
2018-12-01T13:03:40.412Z,14.87
2018-12-01T13:06:28.330Z,15.83
2018-12-01T13:08:56.570Z,15.47
2018-12-01T13:14:17.786Z,15.30
2018-12-01T13:16:46.033Z,14.70
2018-12-01T13:19:14.312Z,15.27
2018-12-01T13:21:42.575Z,15.50
2018-12-01T13:24:10.802Z,15.47
2018-12-01T13:26:39.134Z,15.27
2018-12-01T13:29:07.454Z,15.80
2018-12-01T13:31:35.724Z,13.70
2018-12-01T13:34:04.045Z,12.83
2018-12-01T13:36:32.349Z,12.80
2018-12-01T13:39:00.887Z,13.37
2018-12-01T13:41:29.508Z,13.10
2018-12-01T13:46:50.310Z,14.67
2018-12-01T13:49:18.597Z,14.00
2018-12-01T13:51:46.889Z,14.20
2018-12-01T13:54:15.138Z,15.53
2018-12-01T13:56:43.388Z,11.87
2018-12-01T13:59:11.672Z,13.63
2018-12-01T14:01:39.885Z,13.83
2018-12-01T14:04:08.137Z,13.07
2018-12-01T14:06:36.389Z,11.93
2018-12-01T14:09:06.268Z,11.47
2018-12-01T14:11:34.515Z,10.53
2018-12-01T14:14:02.733Z,9.40
2018-12-01T14:16:31.023Z,9.00
2018-12-01T14:18:59.283Z,8.97
2018-12-01T14:21:27.550Z,8.93
2018-12-01T14:23:55.844Z,11.03
2018-12-01T14:26:24.071Z,8.90
2018-12-01T14:28:52.347Z,8.80
2018-12-01T14:31:20.642Z,9.63
2018-12-01T14:33:48.920Z,9.17
2018-12-01T14:36:19.996Z,9.90
2018-12-01T14:38:48.250Z,9.20
2018-12-01T14:41:16.510Z,9.47
2018-12-01T14:43:44.765Z,9.70
2018-12-01T14:46:13.013Z,8.20
2018-12-01T14:48:41.328Z,9.07
2018-12-01T14:51:09.606Z,8.17
2018-12-01T14:53:37.852Z,8.27
2018-12-01T14:56:06.484Z,9.20
2018-12-01T14:58:34.742Z,8.87
2018-12-01T15:01:03.050Z,8.27
2018-12-01T15:03:31.326Z,13.43
2018-12-01T15:05:59.559Z,12.20
2018-12-01T15:08:27.839Z,12.90
2018-12-01T15:10:56.153Z,10.63
2018-12-01T15:13:24.690Z,12.40
2018-12-01T15:15:52.949Z,10.27
2018-12-01T15:18:21.284Z,19.33
2018-12-01T15:20:49.616Z,11.13
2018-12-01T15:23:17.875Z,10.47
2018-12-01T15:25:46.113Z,10.90
2018-12-01T15:28:14.368Z,18.40
2018-12-01T15:30:42.604Z,17.20
2018-12-01T15:33:13.078Z,17.33
2018-12-01T15:35:42.282Z,18.10
2018-12-01T15:38:10.786Z,17.87
2018-12-01T15:40:41.014Z,18.47
2018-12-01T15:43:09.263Z,18.57
2018-12-01T15:45:37.514Z,19.73
2018-12-01T15:48:06.634Z,21.17
2018-12-01T15:50:34.926Z,27.60
2018-12-01T15:53:03.283Z,20.43
2018-12-01T15:55:31.556Z,23.43
2018-12-01T15:57:59.833Z,16.40
2018-12-01T16:00:28.573Z,28.25
2018-12-01T16:02:56.815Z,24.10
2018-12-01T16:05:25.342Z,29.03
2018-12-01T16:07:54.821Z,25.37
2018-12-01T16:10:23.624Z,22.27
2018-12-01T16:12:57.625Z,16.73
2018-12-01T16:15:34.673Z,15.67
2018-12-01T16:18:03.027Z,13.20
2018-12-01T16:20:31.858Z,11.03
2018-12-01T16:25:53.214Z,20.70
2018-12-01T16:28:21.491Z,21.27
2018-12-01T16:30:49.792Z,20.63
2018-12-01T16:33:20.055Z,23.53
2018-12-01T16:35:49.144Z,22.77
2018-12-01T16:38:19.411Z,19.30
2018-12-01T16:40:50.228Z,18.90
2018-12-01T16:43:18.660Z,13.07
2018-12-01T16:45:48.523Z,11.43
2018-12-01T16:48:16.788Z,11.87
2018-12-01T16:50:45.083Z,13.27
2018-12-01T16:53:14.817Z,15.47
2018-12-01T16:55:43.536Z,17.77
2018-12-01T16:58:11.775Z,36.20
2018-12-01T17:00:40.098Z,37.40
2018-12-01T17:03:09.386Z,26.03
2018-12-01T17:05:39.579Z,21.13
2018-12-01T17:08:08.152Z,21.87
2018-12-01T17:10:37.068Z,20.77
2018-12-01T17:13:06.586Z,21.70
2018-12-01T17:15:34.859Z,39.53
2018-12-01T17:18:03.666Z,28.30
2018-12-01T17:20:31.950Z,26.87
2018-12-01T17:23:00.447Z,27.47
2018-12-01T17:25:28.803Z,18.93
2018-12-01T17:27:58.289Z,17.33
2018-12-01T17:30:27.914Z,19.67
2018-12-01T17:32:56.979Z,23.13
2018-12-01T17:35:26.589Z,25.70
2018-12-01T17:37:56.302Z,29.50
2018-12-01T17:40:59.063Z,45.43
2018-12-01T17:43:30.467Z,49.20
2018-12-01T17:45:58.863Z,33.30
2018-12-01T17:48:27.097Z,23.23
2018-12-01T17:50:55.515Z,21.13
2018-12-01T17:53:23.925Z,24.70
2018-12-01T17:55:52.289Z,14.63
2018-12-01T17:58:20.611Z,24.13
2018-12-01T18:00:48.911Z,31.37
2018-12-01T18:03:17.236Z,36.20
2018-12-01T18:05:47.008Z,24.67
2018-12-01T18:08:20.349Z,22.53
2018-12-01T18:10:50.257Z,19.67
2018-12-01T18:13:19.267Z,18.33
2018-12-01T18:15:48.169Z,18.57
2018-12-01T18:18:17.470Z,18.03
2018-12-01T18:20:46.538Z,29.90
2018-12-01T18:23:16.186Z,19.93
2018-12-01T18:25:47.545Z,15.30
2018-12-01T18:28:34.850Z,17.17
2018-12-01T18:31:06.300Z,11.77
2018-12-01T18:33:36.399Z,11.90
2018-12-01T18:36:05.317Z,11.20
2018-12-01T18:38:33.666Z,10.17
2018-12-01T18:41:01.932Z,8.47
2018-12-01T18:43:30.201Z,10.23
2018-12-01T18:46:00.483Z,22.30
2018-12-01T18:48:28.765Z,26.57
2018-12-01T18:50:57.039Z,16.30
2018-12-01T18:53:25.575Z,19.63
2018-12-01T18:55:56.097Z,15.37
2018-12-01T18:58:24.875Z,9.50
2018-12-01T19:00:56.342Z,8.50
2018-12-01T19:03:27.953Z,10.37
2018-12-01T19:05:56.483Z,9.77
2018-12-01T19:08:24.755Z,18.67
2018-12-01T19:10:53.121Z,18.37
2018-12-01T19:13:21.639Z,17.57
2018-12-01T19:15:49.959Z,18.17
2018-12-01T19:18:18.291Z,16.80
2018-12-01T19:20:46.548Z,23.83
2018-12-01T19:23:15.999Z,16.20
2018-12-01T19:25:45.698Z,14.37
2018-12-01T19:28:13.904Z,14.57
2018-12-01T19:30:42.123Z,19.07
2018-12-01T19:33:15.633Z,19.33
2018-12-01T19:35:44.381Z,25.63
2018-12-01T19:38:16.456Z,21.07
2018-12-01T19:40:45.275Z,18.20
2018-12-01T19:43:13.603Z,14.87
2018-12-01T19:45:41.916Z,14.43
2018-12-01T19:48:10.873Z,11.37
2018-12-01T19:50:40.255Z,21.77
2018-12-01T19:53:10.479Z,12.30
2018-12-01T19:55:38.757Z,15.33
2018-12-01T19:58:10.984Z,12.47
2018-12-01T20:00:39.697Z,14.17
2018-12-01T20:03:10.468Z,23.50
2018-12-01T20:05:38.728Z,11.43
2018-12-01T20:08:07.938Z,19.90
2018-12-01T20:10:38.551Z,19.90
2018-12-01T20:13:13.641Z,14.90
2018-12-01T20:15:45.141Z,14.93
2018-12-01T20:18:18.182Z,9.40
2018-12-01T20:20:46.448Z,8.10
2018-12-01T20:23:14.726Z,6.83
2018-12-01T20:25:43.439Z,5.70
2018-12-01T20:28:11.714Z,6.17
2018-12-01T20:30:39.951Z,7.33
2018-12-01T20:33:08.190Z,6.87
2018-12-01T20:35:48.252Z,13.80
2018-12-01T20:38:22.393Z,11.00
2018-12-01T20:40:50.664Z,17.13
2018-12-01T20:43:18.914Z,17.13
2018-12-01T20:45:47.166Z,9.07
2018-12-01T20:48:15.431Z,10.40
2018-12-01T20:50:43.800Z,9.80
2018-12-01T20:53:12.058Z,9.33
2018-12-01T20:55:42.880Z,13.63
2018-12-01T20:58:11.179Z,10.50
2018-12-01T21:00:39.449Z,11.53
2018-12-01T21:03:07.731Z,8.90
2018-12-01T21:05:36.085Z,8.13
2018-12-01T21:08:04.478Z,7.40
2018-12-01T21:10:34.473Z,6.13
2018-12-01T21:13:03.261Z,7.27
2018-12-01T21:15:31.514Z,6.10
2018-12-01T21:17:59.778Z,7.00
2018-12-01T21:20:28.064Z,10.90
2018-12-01T21:22:56.337Z,8.93
2018-12-01T21:25:26.573Z,9.17
2018-12-01T21:27:56.383Z,6.87
2018-12-01T21:30:27.417Z,11.43
2018-12-01T21:33:01.097Z,12.23
2018-12-01T21:35:29.546Z,12.23
2018-12-01T21:37:57.842Z,9.77
2018-12-01T21:40:26.111Z,7.90
2018-12-01T21:42:54.485Z,8.60
2018-12-01T21:45:22.748Z,9.17
2018-12-01T21:47:51.025Z,10.97
2018-12-01T21:50:20.698Z,14.00
2018-12-01T21:52:53.281Z,11.03
2018-12-01T21:55:22.000Z,13.73
2018-12-01T21:57:51.227Z,12.47
2018-12-01T22:00:22.816Z,10.90
2018-12-01T22:02:53.697Z,7.63
2018-12-01T22:05:24.094Z,7.77
2018-12-01T22:07:52.416Z,6.90
2018-12-01T22:10:20.669Z,5.57
2018-12-01T22:12:48.920Z,5.30
2018-12-01T22:15:19.137Z,6.40
2018-12-01T22:17:54.047Z,5.30
2018-12-01T22:20:23.178Z,6.07
2018-12-01T22:22:52.303Z,5.50
2018-12-01T22:25:20.666Z,6.37
2018-12-01T22:27:49.497Z,7.50
2018-12-01T22:30:21.544Z,6.00
2018-12-01T22:32:56.347Z,6.57
2018-12-01T22:35:26.473Z,6.60
2018-12-01T22:37:55.447Z,5.40
2018-12-01T22:40:25.879Z,9.70
2018-12-01T22:42:55.623Z,9.50
2018-12-01T22:45:23.903Z,21.53
2018-12-01T22:47:52.284Z,24.60
2018-12-01T22:50:21.384Z,15.13
2018-12-01T22:52:50.259Z,9.60
2018-12-01T22:58:15.061Z,8.83
2018-12-01T23:00:58.938Z,12.90
2018-12-01T23:03:28.442Z,12.23
2018-12-01T23:05:56.744Z,21.07
2018-12-01T23:08:27.125Z,14.27
2018-12-01T23:10:55.596Z,14.83
2018-12-01T23:13:23.901Z,11.87
2018-12-01T23:15:52.231Z,9.73
2018-12-01T23:18:22.099Z,10.57
2018-12-01T23:20:50.342Z,8.27
2018-12-01T23:23:18.705Z,8.43
2018-12-01T23:25:46.996Z,9.70
2018-12-01T23:28:15.252Z,7.97
2018-12-01T23:30:52.148Z,7.80
2018-12-01T23:33:23.573Z,8.20
2018-12-01T23:35:52.011Z,8.67
2018-12-01T23:38:20.264Z,10.67
2018-12-01T23:40:48.520Z,8.77
2018-12-01T23:43:16.817Z,8.63
2018-12-01T23:45:45.675Z,8.30
2018-12-01T23:48:13.908Z,9.40
2018-12-01T23:50:45.134Z,10.67
2018-12-01T23:53:14.787Z,10.90
2018-12-01T23:55:43.029Z,9.43
2018-12-01T23:58:11.309Z,11.07
